createdAt,value
2018-09-12T00:00:50.517Z,17.00
2018-09-12T00:03:18.745Z,16.90
2018-09-12T00:05:46.950Z,16.80
2018-09-12T00:08:15.125Z,16.90
2018-09-12T00:10:43.357Z,16.90
2018-09-12T00:13:11.537Z,16.90
2018-09-12T00:15:39.753Z,17.00
2018-09-12T00:18:07.933Z,17.00
2018-09-12T00:20:40.977Z,17.10
2018-09-12T00:23:09.170Z,17.10
2018-09-12T00:25:37.384Z,17.10
2018-09-12T00:28:05.594Z,17.10
2018-09-12T00:30:33.808Z,17.00
2018-09-12T00:33:02.000Z,17.10
2018-09-12T00:35:30.217Z,17.10
2018-09-12T00:37:58.446Z,17.10
2018-09-12T00:40:26.649Z,17.00
2018-09-12T00:42:54.859Z,17.00
2018-09-12T00:45:23.021Z,16.90
2018-09-12T00:47:51.242Z,16.90
2018-09-12T00:50:19.434Z,16.90
2018-09-12T00:52:47.636Z,16.80
2018-09-12T00:55:15.809Z,16.80
2018-09-12T00:57:44.026Z,16.80
2018-09-12T01:00:12.382Z,16.80
2018-09-12T01:02:40.657Z,16.70
2018-09-12T01:05:08.946Z,16.60
2018-09-12T01:07:37.173Z,16.40
2018-09-12T01:10:08.704Z,16.30
2018-09-12T01:12:36.933Z,16.40
2018-09-12T01:15:05.220Z,16.40
2018-09-12T01:17:33.429Z,16.40
2018-09-12T01:20:03.337Z,16.30
2018-09-12T01:22:31.605Z,16.20
2018-09-12T01:24:59.785Z,16.20
2018-09-12T01:27:27.997Z,16.20
2018-09-12T01:29:56.185Z,16.30
2018-09-12T01:32:24.536Z,16.40
2018-09-12T01:34:52.930Z,16.50
2018-09-12T01:37:21.154Z,16.50
2018-09-12T01:39:49.325Z,16.40
2018-09-12T01:42:17.561Z,16.30
2018-09-12T01:44:45.751Z,16.30
2018-09-12T01:47:13.953Z,16.40
2018-09-12T01:49:42.140Z,16.30
2018-09-12T01:52:10.373Z,16.30
2018-09-12T01:54:38.530Z,16.20
2018-09-12T01:57:06.773Z,16.20
2018-09-12T01:59:34.958Z,16.10
2018-09-12T02:02:04.853Z,16.00
2018-09-12T02:04:33.222Z,16.00
2018-09-12T02:07:05.809Z,16.00
2018-09-12T02:09:35.917Z,15.80
2018-09-12T02:12:04.181Z,15.80
2018-09-12T02:14:32.398Z,15.80
2018-09-12T02:17:00.585Z,15.80
2018-09-12T02:19:28.795Z,15.80
2018-09-12T02:21:56.988Z,15.90
2018-09-12T02:24:25.305Z,15.90
2018-09-12T02:26:53.613Z,15.80
2018-09-12T02:29:21.829Z,15.80
2018-09-12T02:31:50.016Z,15.80
2018-09-12T02:34:22.354Z,15.80
2018-09-12T02:36:50.634Z,15.80
2018-09-12T02:39:18.876Z,15.70
2018-09-12T02:41:47.065Z,15.60
2018-09-12T02:44:15.293Z,15.50
2018-09-12T02:46:43.493Z,15.50
2018-09-12T02:49:11.726Z,15.40
2018-09-12T02:51:39.918Z,15.40
2018-09-12T02:54:08.132Z,15.50
2018-09-12T02:56:36.326Z,15.40
2018-09-12T02:59:04.600Z,15.40
2018-09-12T03:01:32.797Z,15.40
2018-09-12T03:04:17.506Z,15.50
2018-09-12T03:06:45.749Z,15.50
2018-09-12T03:09:13.990Z,15.50
2018-09-12T03:11:42.197Z,15.50
2018-09-12T03:14:10.425Z,15.40
2018-09-12T03:16:38.628Z,15.30
2018-09-12T03:19:06.845Z,15.20
2018-09-12T03:21:35.048Z,15.10
2018-09-12T03:24:03.385Z,15.10
2018-09-12T03:26:31.745Z,15.20
2018-09-12T03:29:00.034Z,15.30
2018-09-12T03:31:28.565Z,15.30
2018-09-12T03:33:56.843Z,15.10
2018-09-12T03:36:25.041Z,15.10
2018-09-12T03:38:54.177Z,15.10
2018-09-12T03:41:22.501Z,15.10
2018-09-12T03:43:50.923Z,15.10
2018-09-12T03:46:19.152Z,15.20
2018-09-12T03:48:47.709Z,15.20
2018-09-12T03:51:16.086Z,15.20
2018-09-12T03:53:44.262Z,15.10
2018-09-12T03:56:12.505Z,15.10
2018-09-12T03:58:40.742Z,15.00
2018-09-12T04:01:08.988Z,15.10
2018-09-12T04:03:37.174Z,15.10
2018-09-12T04:06:05.574Z,15.00
2018-09-12T04:08:33.789Z,15.10
2018-09-12T04:11:02.023Z,15.10
2018-09-12T04:13:30.218Z,15.20
2018-09-12T04:15:58.438Z,15.20
2018-09-12T04:18:26.614Z,15.20
2018-09-12T04:20:54.837Z,15.20
2018-09-12T04:23:23.021Z,15.20
2018-09-12T04:25:51.265Z,15.20
2018-09-12T04:28:23.058Z,15.20
2018-09-12T04:30:52.399Z,15.30
2018-09-12T04:33:20.652Z,15.40
2018-09-12T04:35:48.934Z,15.30
2018-09-12T04:38:17.181Z,15.20
2018-09-12T04:40:45.416Z,15.00
2018-09-12T04:43:13.709Z,14.80
2018-09-12T04:45:41.938Z,14.70
2018-09-12T04:48:10.218Z,14.80
2018-09-12T04:50:38.530Z,14.80
2018-09-12T04:53:06.777Z,14.80
2018-09-12T04:55:35.015Z,14.70
2018-09-12T04:58:03.254Z,14.80
2018-09-12T05:00:31.502Z,14.80
2018-09-12T05:02:59.742Z,14.80
2018-09-12T05:05:27.960Z,14.80
2018-09-12T05:07:56.216Z,14.90
2018-09-12T05:10:24.400Z,14.90
2018-09-12T05:12:52.618Z,14.80
2018-09-12T05:15:20.841Z,14.80
2018-09-12T05:17:49.050Z,14.80
2018-09-12T05:20:17.297Z,14.90
2018-09-12T05:22:45.535Z,14.90
2018-09-12T05:25:13.753Z,15.00
2018-09-12T05:27:41.996Z,15.00
2018-09-12T05:30:10.233Z,15.20
2018-09-12T05:32:38.514Z,15.60
2018-09-12T05:35:07.038Z,15.80
2018-09-12T05:37:35.331Z,16.10
2018-09-12T05:40:04.207Z,16.10
2018-09-12T05:42:32.478Z,16.30
2018-09-12T05:45:01.684Z,16.60
2018-09-12T05:47:29.976Z,16.80
2018-09-12T05:49:58.229Z,17.00
2018-09-12T05:52:26.463Z,17.00
2018-09-12T05:54:54.662Z,17.10
2018-09-12T05:57:22.897Z,17.30
2018-09-12T05:59:51.090Z,17.40
2018-09-12T06:02:19.413Z,17.60
2018-09-12T06:04:47.608Z,17.70
2018-09-12T06:07:16.009Z,17.80
2018-09-12T06:09:44.093Z,17.80
2018-09-12T06:12:12.342Z,17.90
2018-09-12T06:14:40.527Z,18.10
2018-09-12T06:17:08.746Z,18.30
2018-09-12T06:19:36.920Z,18.50
2018-09-12T06:22:05.163Z,18.50
2018-09-12T06:24:33.382Z,18.60
2018-09-12T06:27:01.582Z,18.70
2018-09-12T06:29:29.789Z,18.90
2018-09-12T06:31:58.011Z,19.00
2018-09-12T06:34:26.230Z,19.30
2018-09-12T06:36:54.504Z,19.60
2018-09-12T06:39:22.776Z,19.60
2018-09-12T06:41:50.977Z,19.80
2018-09-12T06:44:19.196Z,20.10
2018-09-12T06:46:47.384Z,20.20
2018-09-12T06:49:15.610Z,20.20
2018-09-12T06:51:44.592Z,20.30
2018-09-12T06:54:12.898Z,20.40
2018-09-12T06:56:41.164Z,20.60
2018-09-12T06:59:09.387Z,20.60
2018-09-12T07:01:37.568Z,20.70
2018-09-12T07:04:05.948Z,20.90
2018-09-12T07:06:34.202Z,21.10
2018-09-12T07:09:02.548Z,21.30
2018-09-12T07:11:30.733Z,21.40
2018-09-12T07:13:58.971Z,21.40
2018-09-12T07:16:27.185Z,21.40
2018-09-12T07:18:55.441Z,21.40
2018-09-12T07:21:23.641Z,21.70
2018-09-12T07:23:51.858Z,21.70
2018-09-12T07:26:20.063Z,21.80
2018-09-12T07:28:48.304Z,21.80
2018-09-12T07:31:16.534Z,21.80
2018-09-12T07:33:44.760Z,21.90
2018-09-12T07:36:12.936Z,22.30
2018-09-12T07:38:41.168Z,22.40
2018-09-12T07:41:09.340Z,22.30
2018-09-12T07:43:37.604Z,22.40
2018-09-12T07:46:05.817Z,22.70
2018-09-12T07:48:34.009Z,22.80
2018-09-12T07:51:02.241Z,23.00
2018-09-12T07:53:30.430Z,22.80
2018-09-12T07:55:58.694Z,23.10
2018-09-12T07:58:26.877Z,23.00
2018-09-12T08:00:55.107Z,23.00
2018-09-12T08:03:23.297Z,23.00
2018-09-12T08:05:51.570Z,23.10
2018-09-12T08:08:19.817Z,23.60
2018-09-12T08:10:48.136Z,23.80
2018-09-12T08:13:16.413Z,24.00
2018-09-12T08:15:44.696Z,23.90
2018-09-12T08:18:12.963Z,24.00
2018-09-12T08:20:43.383Z,24.00
2018-09-12T08:23:11.593Z,24.10
2018-09-12T08:25:39.830Z,24.30
2018-09-12T08:28:08.010Z,24.30
2018-09-12T08:30:36.370Z,24.20
2018-09-12T08:33:04.605Z,24.40
2018-09-12T08:35:32.826Z,24.40
2018-09-12T08:38:01.036Z,24.10
2018-09-12T08:40:29.294Z,24.00
2018-09-12T08:42:57.478Z,24.10
2018-09-12T08:45:25.711Z,24.20
2018-09-12T08:47:53.934Z,24.50
2018-09-12T08:50:23.861Z,24.90
2018-09-12T08:52:53.258Z,25.10
2018-09-12T08:55:21.525Z,25.20
2018-09-12T08:57:49.760Z,25.50
2018-09-12T09:00:18.429Z,25.60
2018-09-12T09:02:46.607Z,25.70
2018-09-12T09:05:14.822Z,25.70
2018-09-12T09:07:43.050Z,25.90
2018-09-12T09:10:11.256Z,26.00
2018-09-12T09:12:39.473Z,26.30
2018-09-12T09:15:07.712Z,26.30
2018-09-12T09:17:36.002Z,26.50
2018-09-12T09:20:04.242Z,26.70
2018-09-12T09:22:32.465Z,26.50
2018-09-12T09:25:00.651Z,26.60
2018-09-12T09:27:29.278Z,26.70
2018-09-12T09:29:57.800Z,26.80
2018-09-12T09:32:26.017Z,26.70
2018-09-12T09:34:54.216Z,26.80
2018-09-12T09:37:22.445Z,26.90
2018-09-12T09:39:50.686Z,27.00
2018-09-12T09:42:19.023Z,27.20
2018-09-12T09:44:47.254Z,27.30
2018-09-12T09:47:16.046Z,27.40
2018-09-12T09:49:44.334Z,27.30
2018-09-12T09:52:12.539Z,27.40
2018-09-12T09:54:40.740Z,27.50
2018-09-12T09:57:09.040Z,27.40
2018-09-12T09:59:37.954Z,27.60
2018-09-12T10:02:11.629Z,27.50
2018-09-12T10:05:45.936Z,27.60
2018-09-12T10:08:19.628Z,27.80
2018-09-12T10:10:47.834Z,27.80
2018-09-12T10:13:16.459Z,27.90
2018-09-12T10:15:44.911Z,27.90
2018-09-12T10:18:14.227Z,28.00
2018-09-12T10:20:42.466Z,27.90
2018-09-12T10:23:11.010Z,27.80
2018-09-12T10:25:39.220Z,27.80
2018-09-12T10:28:07.796Z,27.70
2018-09-12T10:30:36.108Z,27.80
2018-09-12T10:33:05.177Z,27.70
2018-09-12T10:35:33.372Z,27.80
2018-09-12T10:38:01.602Z,27.90
2018-09-12T10:40:29.778Z,28.00
2018-09-12T10:42:58.001Z,27.90
2018-09-12T10:45:26.184Z,27.80
2018-09-12T10:47:54.422Z,27.70
2018-09-12T10:50:22.621Z,27.90
2018-09-12T10:52:51.732Z,28.10
2018-09-12T10:55:20.245Z,28.30
2018-09-12T10:57:48.533Z,28.10
2018-09-12T11:00:16.760Z,28.10
2018-09-12T11:02:44.975Z,28.20
2018-09-12T11:05:13.308Z,28.10
2018-09-12T11:07:42.074Z,28.30
2018-09-12T11:10:10.353Z,28.40
2018-09-12T11:12:38.541Z,28.40
2018-09-12T11:15:06.926Z,28.40
2018-09-12T11:17:35.367Z,28.40
2018-09-12T11:20:03.663Z,28.40
2018-09-12T11:22:31.930Z,28.60
2018-09-12T11:25:00.157Z,28.80
2018-09-12T11:27:28.349Z,29.00
2018-09-12T11:29:56.576Z,29.10
2018-09-12T11:32:24.806Z,29.10
2018-09-12T11:34:53.093Z,29.30
2018-09-12T11:37:21.326Z,29.40
2018-09-12T11:39:49.553Z,29.60
2018-09-12T11:42:17.731Z,29.60
2018-09-12T11:44:45.951Z,29.40
2018-09-12T11:47:14.152Z,29.40
2018-09-12T11:49:42.425Z,29.40
2018-09-12T11:52:10.637Z,29.50
2018-09-12T11:54:38.858Z,29.50
2018-09-12T11:57:07.091Z,29.40
2018-09-12T11:59:35.307Z,29.70
2018-09-12T12:02:03.665Z,29.90
2018-09-12T12:04:31.893Z,29.90
2018-09-12T12:07:00.099Z,30.00
2018-09-12T12:09:28.327Z,30.10
2018-09-12T12:11:56.529Z,30.10
2018-09-12T12:14:25.210Z,30.00
2018-09-12T12:16:53.466Z,30.20
2018-09-12T12:19:21.761Z,30.40
2018-09-12T12:21:49.979Z,30.50
2018-09-12T12:24:18.202Z,30.50
2018-09-12T12:26:46.425Z,30.60
2018-09-12T12:29:14.597Z,30.70
2018-09-12T12:31:42.800Z,30.90
2018-09-12T12:34:10.989Z,30.80
2018-09-12T12:36:41.461Z,30.70
2018-09-12T12:39:11.720Z,30.70
2018-09-12T12:41:40.113Z,30.60
2018-09-12T12:44:08.297Z,30.40
2018-09-12T12:46:36.517Z,30.50
2018-09-12T12:49:04.794Z,30.50
2018-09-12T12:51:33.030Z,30.60
2018-09-12T12:54:01.681Z,30.60
2018-09-12T12:56:29.931Z,30.60
2018-09-12T12:58:58.135Z,30.70
2018-09-12T13:01:26.566Z,30.80
2018-09-12T13:03:54.794Z,30.70
2018-09-12T13:06:23.149Z,30.90
2018-09-12T13:08:51.326Z,31.00
2018-09-12T13:11:19.539Z,31.20
2018-09-12T13:13:47.734Z,31.10
2018-09-12T13:16:15.980Z,31.00
2018-09-12T13:18:44.177Z,31.00
2018-09-12T13:21:12.450Z,30.80
2018-09-12T13:23:40.667Z,30.60
2018-09-12T13:26:08.881Z,30.70
2018-09-12T13:28:37.057Z,30.80
2018-09-12T13:31:05.374Z,30.90
2018-09-12T13:33:33.561Z,31.10
2018-09-12T13:36:01.780Z,31.10
2018-09-12T13:38:30.009Z,31.10
2018-09-12T13:40:58.217Z,30.90
2018-09-12T13:43:26.411Z,30.90
2018-09-12T13:45:55.569Z,30.70
2018-09-12T13:48:23.745Z,30.70
2018-09-12T13:50:51.969Z,30.90
2018-09-12T13:53:20.219Z,31.10
2018-09-12T13:55:48.396Z,31.00
2018-09-12T13:58:16.599Z,30.70
2018-09-12T14:00:46.621Z,30.70
2018-09-12T14:03:15.177Z,30.80
2018-09-12T14:05:43.365Z,30.80
2018-09-12T14:08:11.577Z,30.90
2018-09-12T14:10:39.760Z,30.50
2018-09-12T14:13:08.012Z,30.70
2018-09-12T14:15:36.193Z,30.90
2018-09-12T14:18:04.421Z,31.00
2018-09-12T14:20:35.519Z,31.10
2018-09-12T14:23:03.758Z,31.10
2018-09-12T14:25:31.997Z,31.00
2018-09-12T14:28:00.215Z,30.80
2018-09-12T14:30:28.393Z,30.70
2018-09-12T14:32:56.605Z,30.60
2018-09-12T14:35:26.355Z,30.70
2018-09-12T14:37:54.688Z,30.70
2018-09-12T14:40:22.884Z,30.50
2018-09-12T14:42:51.098Z,30.40
2018-09-12T14:45:19.290Z,30.50
2018-09-12T14:47:48.045Z,30.50
2018-09-12T14:50:16.264Z,30.50
2018-09-12T14:52:44.568Z,30.50
2018-09-12T14:55:12.752Z,30.50
2018-09-12T14:57:41.008Z,30.50
2018-09-12T15:00:23.407Z,30.40
2018-09-12T15:02:52.015Z,30.40
2018-09-12T15:05:20.248Z,30.30
2018-09-12T15:07:48.593Z,30.30
2018-09-12T15:10:17.071Z,30.10
2018-09-12T15:12:46.014Z,30.00
2018-09-12T15:15:14.574Z,29.80
2018-09-12T15:17:43.721Z,29.80
2018-09-12T15:20:11.972Z,29.70
2018-09-12T15:22:46.891Z,29.70
2018-09-12T15:25:16.113Z,29.60
2018-09-12T15:27:44.349Z,29.50
2018-09-12T15:30:12.625Z,29.20
2018-09-12T15:32:40.822Z,29.10
2018-09-12T15:35:09.151Z,29.00
2018-09-12T15:37:37.345Z,28.80
2018-09-12T15:40:05.672Z,28.60
2018-09-12T15:42:33.877Z,28.60
2018-09-12T15:45:02.090Z,28.50
2018-09-12T15:47:30.277Z,28.40
2018-09-12T15:49:58.490Z,28.30
2018-09-12T15:52:26.673Z,28.20
2018-09-12T15:54:54.896Z,28.10
2018-09-12T15:57:23.133Z,28.00
2018-09-12T15:59:51.396Z,28.00
2018-09-12T16:02:19.609Z,27.80
2018-09-12T16:04:47.889Z,27.80
2018-09-12T16:07:16.026Z,27.70
2018-09-12T16:09:47.078Z,27.60
2018-09-12T16:12:15.254Z,27.50
2018-09-12T16:14:43.477Z,27.40
2018-09-12T16:17:11.653Z,27.40
2018-09-12T16:19:39.926Z,27.30
2018-09-12T16:22:08.186Z,27.20
2018-09-12T16:24:36.398Z,27.20
2018-09-12T16:27:04.620Z,27.00
2018-09-12T16:29:32.857Z,26.90
2018-09-12T16:32:01.038Z,26.70
2018-09-12T16:34:29.233Z,26.60
2018-09-12T16:36:57.395Z,26.50
2018-09-12T16:39:25.697Z,26.40
2018-09-12T16:41:53.858Z,26.20
2018-09-12T16:44:22.066Z,26.00
2018-09-12T16:46:50.230Z,25.90
2018-09-12T16:49:18.497Z,25.90
2018-09-12T16:51:46.721Z,25.90
2018-09-12T16:54:14.896Z,25.80
2018-09-12T16:56:43.119Z,25.70
2018-09-12T16:59:11.329Z,25.70
2018-09-12T17:01:39.533Z,25.70
2018-09-12T17:04:07.759Z,25.60
2018-09-12T17:06:35.973Z,25.60
2018-09-12T17:09:06.525Z,25.60
2018-09-12T17:11:34.748Z,25.50
2018-09-12T17:14:02.964Z,25.50
2018-09-12T17:16:31.183Z,25.40
2018-09-12T17:18:59.400Z,25.30
2018-09-12T17:21:27.714Z,25.10
2018-09-12T17:23:55.995Z,25.10
2018-09-12T17:26:24.216Z,25.10
2018-09-12T17:28:52.445Z,25.10
2018-09-12T17:31:20.658Z,25.00
2018-09-12T17:33:48.844Z,24.90
2018-09-12T17:36:17.081Z,24.70
2018-09-12T17:38:45.268Z,24.50
2018-09-12T17:41:13.477Z,24.30
2018-09-12T17:43:41.648Z,24.20
2018-09-12T17:46:09.845Z,24.20
2018-09-12T17:48:38.013Z,24.10
2018-09-12T17:51:06.230Z,24.00
2018-09-12T17:53:34.405Z,24.00
2018-09-12T17:56:02.660Z,24.00
2018-09-12T17:58:31.112Z,24.00
2018-09-12T18:00:59.622Z,23.90
2018-09-12T18:03:27.812Z,23.90
2018-09-12T18:05:56.049Z,23.90
2018-09-12T18:08:24.338Z,23.80
2018-09-12T18:10:52.609Z,23.70
2018-09-12T18:13:20.825Z,23.60
2018-09-12T18:15:49.436Z,23.50
2018-09-12T18:18:17.648Z,23.50
2018-09-12T18:20:45.921Z,23.40
2018-09-12T18:23:14.117Z,23.40
2018-09-12T18:25:42.294Z,23.40
2018-09-12T18:28:10.529Z,23.30
2018-09-12T18:30:38.857Z,23.30
2018-09-12T18:33:07.059Z,23.20
2018-09-12T18:35:35.252Z,23.20
2018-09-12T18:38:04.168Z,23.20
2018-09-12T18:40:32.322Z,23.20
2018-09-12T18:43:00.590Z,23.10
2018-09-12T18:45:28.782Z,23.10
2018-09-12T18:47:56.995Z,23.10
2018-09-12T18:50:31.781Z,23.00
2018-09-12T18:53:00.254Z,22.90
2018-09-12T18:55:28.433Z,22.80
2018-09-12T18:57:56.662Z,22.60
2018-09-12T19:00:24.985Z,22.60
2018-09-12T19:02:53.585Z,22.50
2018-09-12T19:05:21.780Z,22.50
2018-09-12T19:07:50.057Z,22.50
2018-09-12T19:10:18.253Z,22.50
2018-09-12T19:12:47.472Z,22.60
2018-09-12T19:15:15.702Z,22.50
2018-09-12T19:17:43.946Z,22.50
2018-09-12T19:20:12.524Z,22.40
2018-09-12T19:22:40.749Z,22.20
2018-09-12T19:25:08.949Z,22.20
2018-09-12T19:27:37.152Z,22.20
2018-09-12T19:30:06.251Z,22.20
2018-09-12T19:32:35.569Z,22.20
2018-09-12T19:35:04.745Z,22.10
2018-09-12T19:37:34.014Z,22.00
2018-09-12T19:40:02.664Z,22.00
2018-09-12T19:42:31.097Z,21.90
2018-09-12T19:45:00.182Z,21.80
2018-09-12T19:47:29.139Z,21.70
2018-09-12T19:49:57.813Z,21.70
2018-09-12T19:52:26.623Z,21.70
2018-09-12T19:54:54.835Z,21.60
2018-09-12T19:57:23.604Z,21.60
2018-09-12T19:59:52.975Z,21.50
2018-09-12T20:02:26.585Z,21.60
2018-09-12T20:04:55.132Z,21.60
2018-09-12T20:07:24.116Z,21.70
2018-09-12T20:09:52.901Z,21.70
2018-09-12T20:12:22.262Z,21.70
2018-09-12T20:14:51.141Z,21.70
2018-09-12T20:17:19.741Z,21.60
2018-09-12T20:19:48.662Z,21.50
2018-09-12T20:22:17.457Z,21.50
2018-09-12T20:24:46.483Z,21.40
2018-09-12T20:27:15.271Z,21.40
2018-09-12T20:29:44.977Z,21.30
2018-09-12T20:32:13.963Z,21.30
2018-09-12T20:34:42.729Z,21.20
2018-09-12T20:37:11.853Z,21.20
2018-09-12T20:39:40.981Z,21.20
2018-09-12T20:42:09.249Z,21.00
2018-09-12T20:44:39.088Z,20.90
2018-09-12T20:47:07.513Z,20.90
2018-09-12T20:49:39.451Z,20.90
2018-09-12T20:52:08.029Z,20.90
2018-09-12T20:54:36.544Z,20.90
2018-09-12T20:57:05.686Z,20.80
2018-09-12T20:59:33.940Z,20.90
2018-09-12T21:02:02.714Z,20.80
2018-09-12T21:04:31.397Z,20.70
2018-09-12T21:06:59.565Z,20.70
2018-09-12T21:09:28.354Z,20.80
2018-09-12T21:11:56.781Z,20.80
2018-09-12T21:14:25.122Z,20.70
2018-09-12T21:16:53.341Z,20.70
2018-09-12T21:19:21.507Z,20.60
2018-09-12T21:21:49.717Z,20.70
2018-09-12T21:24:17.876Z,20.70
2018-09-12T21:26:46.085Z,20.70
2018-09-12T21:29:14.252Z,20.60
2018-09-12T21:31:42.600Z,20.50
2018-09-12T21:34:10.810Z,20.40
2018-09-12T21:36:38.976Z,20.40
2018-09-12T21:39:08.846Z,20.30
2018-09-12T21:41:37.139Z,20.30
2018-09-12T21:44:05.372Z,20.30
2018-09-12T21:46:33.689Z,20.40
2018-09-12T21:49:01.905Z,20.50
2018-09-12T21:51:30.129Z,20.50
2018-09-12T21:53:58.301Z,20.50
2018-09-12T21:56:26.592Z,20.50
2018-09-12T21:58:54.862Z,20.50
2018-09-12T22:01:23.124Z,20.50
2018-09-12T22:03:51.770Z,20.40
2018-09-12T22:06:20.237Z,20.20
2018-09-12T22:08:48.400Z,20.10
2018-09-12T22:11:16.600Z,20.10
2018-09-12T22:13:44.777Z,20.10
2018-09-12T22:16:12.989Z,20.20
2018-09-12T22:18:41.177Z,20.20
2018-09-12T22:21:09.454Z,20.20
2018-09-12T22:23:37.623Z,20.20
2018-09-12T22:26:05.920Z,20.20
2018-09-12T22:28:34.133Z,20.20
2018-09-12T22:31:02.313Z,20.10
2018-09-12T22:33:30.521Z,20.00
2018-09-12T22:35:58.677Z,19.90
2018-09-12T22:38:26.919Z,19.90
2018-09-12T22:40:55.093Z,19.60
2018-09-12T22:43:23.292Z,19.40
2018-09-12T22:45:51.452Z,19.50
2018-09-12T22:48:19.715Z,19.60
2018-09-12T22:50:47.950Z,19.70
2018-09-12T22:53:16.232Z,19.70
2018-09-12T22:55:44.425Z,19.70
2018-09-12T22:58:12.641Z,19.80
2018-09-12T23:00:40.908Z,19.70
2018-09-12T23:03:09.118Z,19.70
2018-09-12T23:05:37.290Z,19.70
2018-09-12T23:08:05.546Z,19.60
2018-09-12T23:10:33.717Z,19.60
2018-09-12T23:13:01.923Z,19.60
2018-09-12T23:15:30.093Z,19.60
2018-09-12T23:17:58.310Z,19.70
2018-09-12T23:20:26.485Z,19.80
2018-09-12T23:22:54.677Z,19.80
2018-09-12T23:25:22.829Z,19.60
2018-09-12T23:27:51.037Z,19.40
2018-09-12T23:30:19.200Z,19.30
2018-09-12T23:32:47.596Z,19.30
2018-09-12T23:35:15.759Z,19.30
2018-09-12T23:37:43.952Z,19.30
2018-09-12T23:40:12.125Z,19.50
2018-09-12T23:42:40.317Z,19.50
2018-09-12T23:45:08.485Z,19.40
2018-09-12T23:47:36.672Z,19.40
2018-09-12T23:50:05.009Z,19.30
2018-09-12T23:52:33.165Z,19.30
2018-09-12T23:55:01.393Z,19.20
2018-09-12T23:57:29.546Z,19.10
2018-09-12T23:59:57.953Z,19.10
